Time;durP1;ratioP1;P1;durP2;ratioP2;P2;SDS_P1;SDS_P2;PMS_P1;PMS_P2;Temp;Humidity;BMP_temperature;BMP_pressure;BME280_temperature;BME280_humidity;BME280_pressure;Samples;Min_cycle;Max_cycle;Signal;HPM_P1;HPM_P2
2024/03/04 00:01:24;;;;;;;8.75;4.13;;;3.10;99.90;;;2.11;100.00;100731.28;4184131;28;20386;-77
2024/03/04 00:03:24;;;;;;;6.63;4.00;;;3.00;99.90;;;2.08;100.00;100739.28;4193354;28;20020;-77
2024/03/04 00:05:25;;;;;;;10.70;3.88;;;2.90;99.90;;;2.03;100.00;100741.38;4189603;28;20033;-77
2024/03/04 00:07:26;;;;;;;6.72;3.45;;;2.90;99.90;;;1.92;100.00;100728.22;4185288;28;20511;-77
2024/03/04 00:09:27;;;;;;;7.90;3.30;;;2.80;99.90;;;1.86;100.00;100729.47;4192644;28;20117;-77
2024/03/04 00:11:28;;;;;;;8.23;4.35;;;2.80;99.90;;;1.82;100.00;100733.22;4185250;28;20033;-77
2024/03/04 00:13:30;;;;;;;7.47;3.70;;;2.70;99.90;;;1.77;100.00;100731.84;4185485;28;20025;-77
2024/03/04 00:15:31;;;;;;;8.40;4.78;;;2.70;99.90;;;1.78;100.00;100734.34;4199734;28;20025;-77
2024/03/04 00:17:33;;;;;;;4.75;3.30;;;2.60;99.90;;;1.76;100.00;100741.44;4201791;28;20021;-77
2024/03/04 00:19:36;;;;;;;8.88;3.30;;;2.60;99.90;;;1.73;100.00;100740.78;4191589;28;20025;-77
2024/03/04 00:21:37;;;;;;;7.00;3.72;;;2.60;99.90;;;1.68;100.00;100738.47;4184062;28;20429;-77
2024/03/04 00:23:38;;;;;;;11.35;3.72;;;2.60;99.90;;;1.63;100.00;100731.00;4185093;28;20040;-76
2024/03/04 00:25:39;;;;;;;9.13;4.25;;;2.50;99.90;;;1.65;100.00;100743.88;4184187;28;20052;-77
2024/03/04 00:27:40;;;;;;;7.78;3.70;;;2.50;99.90;;;1.62;100.00;100733.66;4184896;28;20037;-77
2024/03/04 00:29:41;;;;;;;9.05;3.80;;;2.50;99.90;;;1.60;100.00;100731.19;4187490;28;20040;-77
2024/03/04 00:31:41;;;;;;;5.32;3.70;;;2.50;99.90;;;1.60;100.00;100740.75;4199036;28;20028;-77
2024/03/04 00:33:42;;;;;;;8.75;3.40;;;2.50;99.90;;;1.53;100.00;100724.69;4196369;28;20029;-77
2024/03/04 00:35:43;;;;;;;12.43;3.55;;;2.40;99.90;;;1.55;100.00;100735.03;4183832;28;20017;-77
2024/03/04 00:37:44;;;;;;;5.80;3.08;;;2.40;99.90;;;1.49;100.00;100725.81;4185063;28;20021;-78
2024/03/04 00:39:46;;;;;;;9.38;3.38;;;2.40;99.90;;;1.49;100.00;100728.41;4184559;28;20055;-77
2024/03/04 00:41:47;;;;;;;7.65;3.30;;;2.40;99.90;;;1.49;100.00;100728.41;4189048;28;20581;-78
2024/03/04 00:43:48;;;;;;;7.55;3.03;;;2.40;99.90;;;1.49;100.00;100732.81;4192106;28;20028;-77
2024/03/04 00:45:49;;;;;;;6.88;2.80;;;2.30;99.90;;;1.43;100.00;100736.66;4184938;28;20492;-77
2024/03/04 00:47:50;;;;;;;10.85;3.88;;;2.30;99.90;;;1.41;100.00;100740.25;4184702;28;20488;-77
2024/03/04 00:49:50;;;;;;;7.80;4.00;;;2.30;99.90;;;1.39;100.00;100734.31;4197027;28;20040;-77
2024/03/04 00:51:51;;;;;;;8.45;3.60;;;2.30;99.90;;;1.35;100.00;100725.03;4183753;28;20032;-77
2024/03/04 00:53:52;;;;;;;7.68;4.10;;;2.20;99.90;;;1.36;100.00;100737.13;4195081;28;20024;-78
2024/03/04 00:55:53;;;;;;;12.73;4.32;;;2.20;99.90;;;1.34;100.00;100739.00;4200316;28;20024;-77
2024/03/04 00:57:54;;;;;;;7.88;3.97;;;2.20;99.90;;;1.32;100.00;100741.66;4183556;28;20065;-77
2024/03/04 00:59:55;;;;;;;10.20;4.50;;;2.20;99.90;;;1.29;100.00;100741.84;4194163;28;20025;-78
2024/03/04 01:01:57;;;;;;;9.60;3.78;;;2.20;99.90;;;1.28;100.00;100739.38;4184717;28;20059;-77
2024/03/04 01:03:58;;;;;;;9.35;4.18;;;2.10;99.90;;;1.26;100.00;100741.22;4184788;28;20021;-77
2024/03/04 01:05:59;;;;;;;9.18;4.28;;;2.10;99.90;;;1.22;100.00;100724.16;4167412;28;20089;-77
2024/03/04 01:08:00;;;;;;;12.57;3.60;;;2.10;99.90;;;1.24;100.00;100736.13;4191095;28;20025;-77
2024/03/04 01:10:01;;;;;;;13.65;4.13;;;2.10;99.90;;;1.20;100.00;100739.84;4189994;28;20025;-78
2024/03/04 01:12:02;;;;;;;7.03;3.38;;;2.00;99.90;;;1.17;100.00;100741.78;4194158;28;20025;-77
2024/03/04 01:14:03;;;;;;;8.25;4.32;;;2.00;99.90;;;1.13;100.00;100741.97;4199699;28;20063;-78
2024/03/04 01:16:05;;;;;;;8.10;4.32;;;2.00;99.90;;;1.09;100.00;100742.28;4201242;28;20024;-77
2024/03/04 01:18:09;;;;;;;10.18;5.20;;;2.00;99.90;;;1.04;100.00;100734.81;4201311;28;20021;-77
2024/03/04 01:20:13;;;;;;;11.43;4.45;;;1.90;99.90;;;1.00;100.00;100724.69;4187579;28;20021;-78
2024/03/04 01:22:18;;;;;;;7.25;2.70;;;1.90;99.90;;;0.97;100.00;100723.13;4183610;28;20496;-77
2024/03/04 01:24:18;;;;;;;8.90;4.00;;;1.80;99.90;;;0.92;100.00;100717.38;4174783;28;20036;-77
2024/03/04 01:26:19;;;;;;;8.65;3.50;;;1.80;99.90;;;0.92;100.00;100719.97;4189264;28;20033;-78
2024/03/04 01:28:22;;;;;;;9.40;3.45;;;1.80;99.90;;;0.97;100.00;100732.66;4187461;28;20033;-77
2024/03/04 01:30:24;;;;;;;7.05;3.42;;;1.80;99.90;;;0.97;100.00;100736.09;4184996;28;20037;-77
2024/03/04 01:32:25;;;;;;;7.28;4.10;;;1.80;99.90;;;0.93;100.00;100728.56;4191377;28;20083;-78
2024/03/04 01:34:26;;;;;;;10.75;3.83;;;1.80;99.90;;;0.91;100.00;100730.44;4188871;28;20053;-78
2024/03/04 01:36:26;;;;;;;8.88;3.25;;;1.80;99.90;;;0.86;100.00;100735.94;4184582;28;20080;-77
2024/03/04 01:38:27;;;;;;;9.68;3.92;;;1.80;99.90;;;0.85;100.00;100734.25;4200011;28;20097;-78
2024/03/04 01:40:29;;;;;;;14.40;3.60;;;1.70;99.90;;;0.85;100.00;100725.63;4169498;28;20033;-78
2024/03/04 01:42:30;;;;;;;9.60;3.75;;;1.70;99.90;;;0.82;100.00;100718.88;4187777;28;20033;-78
2024/03/04 01:44:35;;;;;;;9.25;4.05;;;1.70;99.90;;;0.86;100.00;100722.97;4186171;28;20108;-78
2024/03/04 01:46:36;;;;;;;8.23;3.35;;;1.70;99.90;;;0.85;100.00;100713.47;4187664;28;20397;-78
2024/03/04 01:48:37;;;;;;;6.07;3.33;;;1.70;99.90;;;0.92;100.00;100713.94;4193056;28;20021;-77
2024/03/04 01:50:41;;;;;;;10.25;3.78;;;1.80;99.90;;;0.93;100.00;100719.03;4191678;28;20037;-77
2024/03/04 01:52:42;;;;;;;7.50;3.22;;;1.80;99.90;;;0.90;100.00;100711.44;4200896;28;20052;-77
2024/03/04 01:54:48;;;;;;;7.82;3.78;;;1.80;99.90;;;0.87;100.00;100711.63;4199604;28;20029;-77
2024/03/04 01:56:49;;;;;;;10.23;3.25;;;1.80;99.90;;;0.82;100.00;100721.47;4186163;28;20112;-77
2024/03/04 01:58:50;;;;;;;8.35;3.25;;;1.70;99.90;;;0.79;100.00;100731.19;4193356;28;20597;-77
2024/03/04 02:00:52;;;;;;;5.93;3.15;;;1.70;99.90;;;0.75;100.00;100727.94;4188383;28;20043;-78
2024/03/04 02:02:55;;;;;;;7.55;3.83;;;1.70;99.90;;;0.81;100.00;100724.97;4169573;28;20037;-77
2024/03/04 02:04:57;;;;;;;8.85;3.78;;;1.70;99.90;;;0.91;100.00;100726.09;4186140;28;20480;-77
2024/03/04 02:07:01;;;;;;;9.77;4.07;;;1.80;99.90;;;0.98;100.00;100721.34;4202552;28;20074;-77
2024/03/04 02:09:01;;;;;;;10.45;3.33;;;1.80;99.90;;;1.02;100.00;100713.25;4202481;28;20025;-77
2024/03/04 02:11:04;;;;;;;9.80;3.95;;;1.90;99.90;;;1.11;100.00;100707.50;4186048;28;20044;-77
2024/03/04 02:13:07;;;;;;;11.85;4.50;;;2.00;99.90;;;1.22;100.00;100706.00;4187170;28;20036;-77
2024/03/04 02:15:08;;;;;;;13.65;4.57;;;2.00;99.90;;;1.24;100.00;100709.31;4199373;28;20017;-77
2024/03/04 02:17:09;;;;;;;12.40;4.68;;;2.10;99.90;;;1.29;100.00;100709.84;4203088;28;20431;-77
2024/03/04 02:19:14;;;;;;;11.23;4.07;;;2.10;99.90;;;1.29;100.00;100702.88;4198045;28;20021;-77
2024/03/04 02:21:19;;;;;;;14.52;3.67;;;2.10;99.90;;;1.29;100.00;100696.84;4185921;28;20033;-78
2024/03/04 02:23:20;;;;;;;8.60;4.53;;;2.10;99.90;;;1.33;100.00;100698.34;4185818;28;20044;-77
2024/03/04 02:25:24;;;;;;;9.13;4.10;;;2.20;99.90;;;1.34;100.00;100697.41;4185588;28;20447;-77
2024/03/04 02:27:26;;;;;;;7.28;3.72;;;2.20;99.90;;;1.33;100.00;100687.94;4187031;28;20060;-77
2024/03/04 02:29:28;;;;;;;10.07;4.88;;;2.20;99.90;;;1.35;100.00;100689.50;4187316;28;20060;-78
2024/03/04 02:31:29;;;;;;;9.75;3.55;;;2.20;99.90;;;1.36;100.00;100691.19;4186595;28;20485;-78
2024/03/04 02:33:30;;;;;;;11.13;4.05;;;2.20;99.90;;;1.35;100.00;100691.25;4189074;28;20465;-78
2024/03/04 02:35:34;;;;;;;7.90;3.72;;;2.20;99.90;;;1.34;100.00;100685.25;4191846;28;20053;-77
2024/03/04 02:37:36;;;;;;;7.07;3.55;;;2.20;99.90;;;1.35;100.00;100689.50;4193296;28;20078;-77
2024/03/04 02:39:37;;;;;;;9.18;4.25;;;2.20;99.90;;;1.38;100.00;100696.25;4198315;28;20090;-77
2024/03/04 02:41:39;;;;;;;10.15;4.55;;;2.30;99.90;;;1.41;100.00;100693.47;4201794;28;20127;-77
2024/03/04 02:43:42;;;;;;;10.55;4.55;;;2.30;99.90;;;1.34;100.00;100689.63;4186777;28;20056;-78
2024/03/04 02:45:43;;;;;;;8.07;4.60;;;2.30;99.90;;;1.34;100.00;100687.84;4185285;28;20051;-77
2024/03/04 02:47:44;;;;;;;10.07;3.80;;;2.30;99.90;;;1.37;100.00;100685.06;4186363;28;20025;-77
2024/03/04 02:49:45;;;;;;;11.48;4.30;;;2.30;99.90;;;1.35;100.00;100684.31;4196933;28;20400;-77
2024/03/04 02:51:45;;;;;;;11.68;4.43;;;2.30;99.90;;;1.38;100.00;100685.88;4185357;28;20033;-78
2024/03/04 02:53:46;;;;;;;10.95;3.78;;;2.30;99.90;;;1.37;100.00;100679.88;4186500;28;20028;-77
2024/03/04 02:55:47;;;;;;;7.45;4.18;;;2.20;99.90;;;1.34;100.00;100669.66;4185220;28;20546;-78
2024/03/04 02:57:48;;;;;;;8.65;3.75;;;2.20;99.90;;;1.40;100.00;100674.47;4186320;28;20029;-77
2024/03/04 02:59:49;;;;;;;15.13;4.57;;;2.20;99.90;;;1.38;100.00;100671.13;4194557;28;20404;-78
2024/03/04 03:01:50;;;;;;;7.38;3.90;;;2.30;99.90;;;1.37;100.00;100668.63;4186176;28;20032;-77
2024/03/04 03:03:51;;;;;;;12.93;3.92;;;2.20;99.90;;;1.37;100.00;100671.22;4185313;28;20037;-78
2024/03/04 03:05:51;;;;;;;9.43;4.72;;;2.20;99.90;;;1.38;100.00;100663.31;4186232;28;20033;-77
2024/03/04 03:07:53;;;;;;;11.77;3.85;;;2.20;99.90;;;1.39;100.00;100659.78;4184677;28;20076;-78
2024/03/04 03:09:54;;;;;;;9.05;3.80;;;2.20;99.90;;;1.41;100.00;100665.72;4200163;28;20102;-77
2024/03/04 03:11:57;;;;;;;14.13;5.20;;;2.20;99.90;;;1.36;100.00;100652.19;4202662;28;20081;-77
2024/03/04 03:13:58;;;;;;;11.75;4.18;;;2.20;99.90;;;1.43;100.00;100660.44;4201672;28;20663;-77
2024/03/04 03:15:59;;;;;;;10.65;4.63;;;2.30;99.90;;;1.41;100.00;100663.13;4202379;28;20028;-78
2024/03/04 03:18:00;;;;;;;7.88;3.60;;;2.20;99.90;;;1.39;100.00;100662.41;4202686;28;20020;-77
2024/03/04 03:20:16;;;;;;;12.57;3.97;;;2.20;99.90;;;1.42;100.00;100658.75;4190279;28;20029;-78
2024/03/04 03:22:17;;;;;;;10.00;4.05;;;2.20;99.90;;;1.38;100.00;100659.88;4185083;28;20056;-78
2024/03/04 03:24:19;;;;;;;9.75;4.20;;;2.20;99.90;;;1.39;100.00;100658.97;4192382;28;20376;-77
2024/03/04 03:26:23;;;;;;;10.95;4.30;;;2.20;99.90;;;1.34;100.00;100651.47;4202518;28;20033;-78
2024/03/04 03:28:23;;;;;;;8.32;3.67;;;2.20;99.90;;;1.37;100.00;100655.63;4200253;28;20028;-77
2024/03/04 03:30:24;;;;;;;14.02;4.90;;;2.20;99.90;;;1.34;100.00;100651.47;4173663;28;20029;-78
2024/03/04 03:32:25;;;;;;;16.42;4.20;;;2.20;99.90;;;1.32;100.00;100647.28;4194760;28;20032;-77
2024/03/04 03:34:26;;;;;;;10.05;3.95;;;2.30;99.90;;;1.34;100.00;100648.03;4189346;28;20033;-78
2024/03/04 03:36:27;;;;;;;11.75;4.60;;;2.20;99.90;;;1.32;100.00;100647.28;4184608;28;20029;-77
2024/03/04 03:38:28;;;;;;;5.72;2.83;;;2.20;99.90;;;1.34;100.00;100651.47;4188678;28;20021;-78
2024/03/04 03:40:29;;;;;;;12.50;4.10;;;2.20;99.90;;;1.28;100.00;100641.47;4195604;28;20032;-78
2024/03/04 03:42:33;;;;;;;9.77;3.60;;;2.20;99.90;;;1.30;100.00;100649.16;4184500;28;20021;-77
2024/03/04 03:44:33;;;;;;;11.15;3.97;;;2.20;99.90;;;1.31;100.00;100659.47;4185528;28;20122;-78
2024/03/04 03:46:34;;;;;;;12.25;4.28;;;2.20;99.90;;;1.31;100.00;100663.81;4185542;28;20505;-77
2024/03/04 03:48:36;;;;;;;9.23;4.43;;;2.20;99.90;;;1.27;100.00;100665.78;4189057;28;20021;-78
2024/03/04 03:50:36;;;;;;;11.63;4.20;;;2.20;99.90;;;1.29;100.00;100665.66;4190791;28;20054;-77
2024/03/04 03:52:37;;;;;;;12.57;4.07;;;2.20;99.90;;;1.32;100.00;100663.72;4185613;28;20033;-77
2024/03/04 03:54:38;;;;;;;12.13;4.40;;;2.20;99.90;;;1.32;100.00;100658.50;4185605;28;20025;-77
2024/03/04 03:56:40;;;;;;;12.60;4.72;;;2.20;99.90;;;1.32;100.00;100653.31;4185597;28;20044;-78
2024/03/04 03:58:41;;;;;;;17.77;4.82;;;2.20;99.90;;;1.31;100.00;100643.03;4189529;28;20445;-78
2024/03/04 04:00:44;;;;;;;7.20;4.15;;;2.20;99.90;;;1.35;100.00;100649.69;4188669;28;20068;-78
2024/03/04 04:02:45;;;;;;;10.63;4.65;;;2.20;99.90;;;1.34;100.00;100648.03;4183731;28;20031;-78
2024/03/04 04:04:46;;;;;;;15.25;4.60;;;2.10;99.90;;;1.33;100.00;100647.19;4184345;28;20432;-77
2024/03/04 04:06:47;;;;;;;18.35;5.15;;;2.20;99.90;;;1.31;100.00;100637.84;4185466;28;20025;-78
2024/03/04 04:08:47;;;;;;;6.68;3.85;;;2.20;99.90;;;1.37;100.00;100655.63;4188968;28;20025;-78
2024/03/04 04:10:48;;;;;;;11.77;3.70;;;2.20;99.90;;;1.35;100.00;100641.88;4185646;28;20025;-77
2024/03/04 04:12:51;;;;;;;9.15;4.75;;;2.20;99.90;;;1.38;100.00;100645.13;4185444;28;20091;-78
2024/03/04 04:14:52;;;;;;;8.95;4.28;;;2.20;99.90;;;1.42;100.00;100650.97;4194475;28;20504;-77
2024/03/04 04:16:53;;;;;;;9.73;3.95;;;2.30;99.90;;;1.42;100.00;100646.59;4201635;28;20033;-77
2024/03/04 04:18:54;;;;;;;14.98;3.83;;;2.30;99.90;;;1.46;100.00;100655.03;4198572;28;20476;-78
2024/03/04 04:20:54;;;;;;;6.72;3.38;;;2.30;99.90;;;1.50;100.00;100649.53;4185476;28;20029;-77
2024/03/04 04:22:55;;;;;;;11.57;4.57;;;2.40;99.90;;;1.55;100.00;100638.84;4185273;28;20032;-78
2024/03/04 04:24:57;;;;;;;9.88;4.35;;;2.40;99.90;;;1.63;100.00;100646.94;4185286;28;20112;-77
2024/03/04 04:26:58;;;;;;;11.68;3.92;;;2.50;99.90;;;1.70;100.00;100648.22;4185133;28;20040;-77
2024/03/04 04:28:59;;;;;;;9.30;3.53;;;2.50;99.90;;;1.71;100.00;100639.47;4191114;28;20029;-78
2024/03/04 04:30:59;;;;;;;9.50;4.03;;;2.60;99.90;;;1.76;100.00;100637.41;4191682;28;20026;-78
2024/03/04 04:33:00;;;;;;;11.20;3.92;;;2.60;99.90;;;1.82;100.00;100628.38;4187697;28;20025;-78
2024/03/04 04:35:02;;;;;;;10.38;3.78;;;2.70;99.90;;;1.88;100.00;100633.16;4185490;28;20044;-78
2024/03/04 04:37:04;;;;;;;13.77;4.07;;;2.70;99.90;;;1.92;100.00;100638.03;4184135;28;20389;-78
2024/03/04 04:39:05;;;;;;;10.30;4.32;;;2.80;99.90;;;1.97;100.00;100633.34;4190574;28;20069;-78
2024/03/04 04:41:05;;;;;;;9.30;4.15;;;2.90;99.90;;;2.03;100.00;100637.31;4189147;28;20029;-78
2024/03/04 04:43:08;;;;;;;14.07;3.67;;;2.90;99.90;;;2.08;100.00;100636.06;4183775;28;20033;-78
2024/03/04 04:45:09;;;;;;;11.60;4.40;;;2.90;99.90;;;2.13;100.00;100639.19;4183977;28;20037;-78
2024/03/04 04:47:10;;;;;;;7.75;3.35;;;3.00;99.90;;;2.11;100.00;100633.25;4184961;28;20025;-78
2024/03/04 04:49:11;;;;;;;14.38;3.83;;;3.00;99.90;;;2.18;100.00;100642.28;4192290;28;20502;-78
2024/03/04 04:51:12;;;;;;;8.18;3.80;;;3.00;99.90;;;2.27;100.00;100647.81;4184921;28;20404;-78
2024/03/04 04:53:12;;;;;;;8.30;3.28;;;3.10;99.90;;;2.26;100.00;100640.94;4185065;28;20022;-79
2024/03/04 04:55:14;;;;;;;7.85;3.17;;;3.10;99.90;;;2.25;100.00;100634.91;4185003;28;20075;-78
2024/03/04 04:57:17;;;;;;;10.88;3.42;;;3.10;99.90;;;2.27;100.00;100633.00;4184897;28;20111;-79
2024/03/04 04:59:19;;;;;;;5.45;2.45;;;3.10;99.90;;;2.30;100.00;100639.81;4190547;28;20020;-78
2024/03/04 05:01:27;;;;;;;9.40;3.33;;;3.10;99.90;;;2.30;100.00;100618.97;4183294;28;20037;-79
2024/03/04 05:03:28;;;;;;;7.15;3.33;;;3.20;99.90;;;2.35;100.00;100627.28;4183550;28;20029;-79
2024/03/04 05:05:29;;;;;;;10.00;3.53;;;3.20;99.90;;;2.33;100.00;100622.19;4183679;28;20025;-78
2024/03/04 05:07:29;;;;;;;11.60;3.58;;;3.20;99.90;;;2.37;100.00;100618.44;4199922;28;20051;-78
2024/03/04 05:09:30;;;;;;;6.88;3.28;;;3.20;99.90;;;2.43;100.00;100622.38;4187307;28;20035;-77
2024/03/04 05:11:32;;;;;;;7.22;3.25;;;3.20;99.90;;;2.45;100.00;100617.91;4184792;28;20033;-78
2024/03/04 05:13:33;;;;;;;8.00;3.20;;;3.30;99.90;;;2.48;100.00;100623.72;4183602;28;20377;-77
2024/03/04 05:15:34;;;;;;;8.10;3.25;;;3.30;99.90;;;2.50;100.00;100614.03;4203570;28;20028;-78
2024/03/04 05:17:36;;;;;;;9.13;3.13;;;3.30;99.90;;;2.52;100.00;100611.31;4204314;28;20027;-78
2024/03/04 05:19:37;;;;;;;9.80;3.78;;;3.30;99.90;;;2.56;100.00;100612.78;4195384;28;20032;-78
2024/03/04 05:21:38;;;;;;;6.57;3.10;;;3.40;99.90;;;2.60;100.00;100616.81;4188198;28;20029;-78
2024/03/04 05:23:39;;;;;;;9.25;3.67;;;3.40;99.90;;;2.56;100.00;100607.56;4187928;28;20036;-78
2024/03/04 05:25:40;;;;;;;6.03;3.47;;;3.40;99.90;;;2.60;100.00;100617.66;4188131;28;20037;-78
2024/03/04 05:27:41;;;;;;;6.65;2.63;;;3.40;99.90;;;2.57;100.00;100614.44;4188049;28;20033;-78
2024/03/04 05:29:42;;;;;;;5.15;3.15;;;3.40;99.90;;;2.53;100.00;100602.59;4203410;28;20028;-78
2024/03/04 05:31:55;;;;;;;7.03;2.80;;;3.40;99.90;;;2.52;100.00;100600.91;4188460;28;20021;-78
2024/03/04 05:33:56;;;;;;;8.15;2.70;;;3.40;99.90;;;2.52;100.00;100608.72;4189575;28;20420;-77
2024/03/04 05:35:57;;;;;;;6.32;3.10;;;3.40;99.90;;;2.54;100.00;100599.03;4192921;28;20021;-78
2024/03/04 05:37:58;;;;;;;8.20;2.60;;;3.40;99.90;;;2.56;100.00;100607.56;4186501;28;20028;-79
2024/03/04 05:39:59;;;;;;;5.35;3.17;;;3.40;99.90;;;2.54;100.00;100604.25;4195717;28;20104;-77
2024/03/04 05:41:59;;;;;;;5.38;3.15;;;3.40;99.90;;;2.52;100.00;100596.53;4194601;28;20438;-78
2024/03/04 05:44:00;;;;;;;4.45;2.25;;;3.40;99.90;;;2.53;100.00;100598.22;4203208;28;20024;-78
2024/03/04 05:46:01;;;;;;;10.00;2.53;;;3.40;99.90;;;2.55;100.00;100603.28;4203874;28;20043;-78
2024/03/04 05:48:05;;;;;;;5.18;2.22;;;3.40;99.90;;;2.53;100.00;100592.16;4204267;28;20024;-79
2024/03/04 05:50:07;;;;;;;6.00;3.03;;;3.40;99.90;;;2.54;100.00;100588.63;4195976;28;20492;-78
2024/03/04 05:52:08;;;;;;;6.03;2.30;;;3.40;99.90;;;2.54;100.00;100588.63;4187360;28;20037;-79
2024/03/04 05:54:09;;;;;;;9.18;2.47;;;3.40;99.90;;;2.52;100.00;100586.13;4186386;28;20029;-79
2024/03/04 05:56:10;;;;;;;9.57;2.80;;;3.40;99.90;;;2.53;100.00;100587.78;4189809;28;20028;-79
2024/03/04 05:58:11;;;;;;;8.80;2.85;;;3.40;99.90;;;2.52;100.00;100574.88;4195961;28;20033;-78
2024/03/04 06:00:14;;;;;;;7.82;3.20;;;3.40;99.90;;;2.56;100.00;100577.16;4190462;28;20480;-79
2024/03/04 06:02:15;;;;;;;11.18;3.03;;;3.40;99.90;;;2.59;100.00;100565.69;4216259;28;20020;-78
2024/03/04 06:04:15;;;;;;;6.45;2.85;;;3.50;99.90;;;2.61;100.00;100569.00;4187568;28;20500;-79
2024/03/04 06:06:16;;;;;;;5.13;2.45;;;3.50;99.90;;;2.67;100.00;100566.81;4187512;28;20029;-79
2024/03/04 06:08:17;;;;;;;4.65;2.63;;;3.50;99.90;;;2.67;100.00;100571.19;4186060;28;20488;-79
2024/03/04 06:10:19;;;;;;;7.43;2.80;;;3.50;99.90;;;2.72;100.00;100572.50;4188967;28;20488;-78
2024/03/04 06:12:20;;;;;;;8.70;2.55;;;3.60;99.90;;;2.72;100.00;100567.28;4187275;28;20036;-78
2024/03/04 06:14:23;;;;;;;7.97;3.08;;;3.60;99.90;;;2.74;100.00;100567.19;4193323;28;20024;-79
2024/03/04 06:16:24;;;;;;;4.82;2.45;;;3.60;99.90;;;2.79;100.00;100570.28;4203681;28;20044;-78
2024/03/04 06:18:26;;;;;;;6.85;2.80;;;3.60;99.90;;;2.85;100.00;100566.41;4202490;28;20016;-78
2024/03/04 06:20:27;;;;;;;4.55;2.78;;;3.70;99.90;;;2.82;100.00;100561.44;4187441;28;20021;-78
2024/03/04 06:22:30;;;;;;;4.30;2.88;;;3.70;99.90;;;2.86;100.00;100557.66;4186133;28;20074;-78
2024/03/04 06:24:34;;;;;;;6.65;2.08;;;3.70;99.90;;;2.83;100.00;100555.28;4186816;28;20514;-79
2024/03/04 06:26:35;;;;;;;7.60;2.28;;;3.70;99.90;;;2.89;100.00;100570.47;4185416;28;20021;-79
2024/03/04 06:28:37;;;;;;;6.55;3.35;;;3.70;99.90;;;2.92;100.00;100563.28;4187987;28;20047;-78
2024/03/04 06:30:38;;;;;;;7.60;2.47;;;3.80;99.90;;;2.98;100.00;100565.44;4197209;28;20077;-79
2024/03/04 06:32:39;;;;;;;6.60;2.97;;;3.80;99.90;;;2.94;100.00;100555.31;4186866;28;20029;-79
2024/03/04 06:34:40;;;;;;;7.75;2.53;;;3.80;99.90;;;3.02;100.00;100558.19;4188804;28;20377;-79
2024/03/04 06:36:41;;;;;;;6.47;3.13;;;3.90;99.90;;;3.05;100.00;100558.81;4202003;28;20032;-79
2024/03/04 06:38:42;;;;;;;6.43;2.72;;;3.90;99.90;;;3.09;100.00;100568.06;4214583;28;20023;-78
2024/03/04 06:40:43;;;;;;;5.22;2.65;;;3.90;99.90;;;3.15;100.00;100569.38;4194330;28;20108;-78
2024/03/04 06:42:44;;;;;;;9.57;3.00;;;4.00;99.90;;;3.21;100.00;100572.38;4186718;28;20071;-78
2024/03/04 06:44:45;;;;;;;9.50;3.08;;;4.10;99.90;;;3.32;100.00;100566.34;4185458;28;20025;-78
2024/03/04 06:46:46;;;;;;;6.70;2.40;;;4.10;99.90;;;3.39;100.00;100561.53;4186520;28;20025;-78
2024/03/04 06:48:47;;;;;;;7.07;2.35;;;4.20;99.90;;;3.43;100.00;100555.16;4188888;28;20439;-78
2024/03/04 06:50:48;;;;;;;10.27;2.35;;;4.30;99.90;;;3.52;100.00;100559.66;4189779;28;20029;-78
2024/03/04 06:52:48;;;;;;;11.07;2.78;;;4.30;99.90;;;3.56;100.00;100550.66;4186464;28;20033;-79
2024/03/04 06:54:49;;;;;;;10.95;3.13;;;4.40;99.90;;;3.59;100.00;100553.03;4186659;28;20143;-79
2024/03/04 06:56:50;;;;;;;9.82;3.13;;;4.40;99.90;;;3.60;100.00;100554.69;4185533;28;20073;-78
2024/03/04 06:58:51;;;;;;;12.35;4.75;;;4.40;99.90;;;3.62;100.00;100555.41;4196952;28;20099;-79
2024/03/04 07:00:52;;;;;;;8.75;4.15;;;4.40;99.90;;;3.62;100.00;100548.41;4201557;28;20024;-78
2024/03/04 07:02:53;;;;;;;6.85;2.80;;;4.40;99.90;;;3.68;100.00;100554.94;4203165;28;20027;-78
2024/03/04 07:04:53;;;;;;;11.65;2.47;;;4.50;99.90;;;3.69;100.00;100551.41;4203011;28;20039;-78
2024/03/04 07:06:54;;;;;;;6.70;2.28;;;4.50;99.90;;;3.78;100.00;100561.13;4203012;28;20027;-79
2024/03/04 07:08:57;;;;;;;7.47;2.33;;;4.50;99.90;;;3.79;100.00;100561.00;4201618;28;20028;-79
2024/03/04 07:10:58;;;;;;;6.57;2.20;;;4.60;99.90;;;3.85;100.00;100563.13;4185121;28;20025;-79
2024/03/04 07:12:59;;;;;;;8.20;2.95;;;4.60;99.90;;;3.90;100.00;100557.56;4185160;28;20017;-78
2024/03/04 07:15:00;;;;;;;7.57;2.25;;;4.70;99.90;;;3.96;100.00;100551.88;4197458;28;20024;-77
2024/03/04 07:17:00;;;;;;;20.30;10.52;;;4.70;99.90;;;4.06;100.00;100563.25;4202441;28;20039;-78
2024/03/04 07:19:01;;;;;;;9.75;5.63;;;4.80;99.90;;;4.13;100.00;100559.22;4199264;28;20072;-78
2024/03/04 07:21:03;;;;;;;11.57;5.00;;;4.90;99.90;;;4.19;100.00;100548.31;4195252;28;20029;-79
2024/03/04 07:23:04;;;;;;;9.52;4.07;;;5.00;99.90;;;4.26;100.00;100549.50;4184991;28;20037;-78
2024/03/04 07:25:06;;;;;;;7.53;3.00;;;5.00;99.90;;;4.33;100.00;100545.44;4201288;28;20048;-78
2024/03/04 07:27:08;;;;;;;8.60;3.42;;;5.10;99.90;;;4.43;100.00;100545.56;4184893;28;20045;-78
2024/03/04 07:29:09;;;;;;;10.88;4.63;;;5.20;99.90;;;4.50;100.00;100541.50;4189373;28;20415;-79
2024/03/04 07:31:10;;;;;;;7.65;3.92;;;5.20;99.90;;;4.60;100.00;100546.84;4191839;28;20040;-78
2024/03/04 07:33:12;;;;;;;9.07;5.25;;;5.30;99.90;;;4.63;100.00;100549.19;4191812;28;20028;-79
2024/03/04 07:35:12;;;;;;;9.90;4.20;;;5.40;99.90;;;4.75;100.00;100550.84;4184664;28;20049;-79
2024/03/04 07:37:13;;;;;;;9.90;3.85;;;5.50;99.90;;;4.82;100.00;100544.13;4192248;28;20051;-79
2024/03/04 07:39:14;;;;;;;12.40;3.58;;;5.60;99.90;;;4.87;100.00;100549.81;4197266;28;20051;-79
2024/03/04 07:41:17;;;;;;;7.20;3.33;;;5.60;99.90;;;4.97;100.00;100550.75;4171247;28;20049;-79
2024/03/04 07:43:18;;;;;;;10.40;3.78;;;5.70;99.90;;;5.03;100.00;100547.63;4185889;28;20070;-80
2024/03/04 07:45:19;;;;;;;9.15;4.30;;;5.80;99.90;;;5.09;100.00;100547.13;4185544;28;20029;-79
2024/03/04 07:47:20;;;;;;;9.48;3.63;;;5.80;99.90;;;5.10;100.00;100534.88;4195606;28;20377;-78
2024/03/04 07:49:21;;;;;;;32.08;15.60;;;5.90;99.90;;;5.24;100.00;100547.66;4194758;28;20393;-83
2024/03/04 07:51:22;;;;;;;29.48;13.48;;;6.00;99.90;;;5.25;100.00;100538.84;4185682;28;20033;-85
2024/03/04 07:53:22;;;;;;;28.13;16.45;;;6.00;99.90;;;5.29;100.00;100541.06;4185653;28;20032;-84
2024/03/04 07:55:23;;;;;;;26.02;13.23;;;6.10;99.90;;;5.39;100.00;100541.97;4184398;28;20519;-80
2024/03/04 07:57:24;;;;;;;20.23;10.20;;;6.10;99.90;;;5.45;100.00;100549.31;4185563;28;20496;-79
2024/03/04 07:59:25;;;;;;;10.98;6.78;;;6.20;99.90;;;5.48;100.00;100549.06;4189266;28;20021;-81
2024/03/04 08:01:26;;;;;;;13.93;6.13;;;6.30;99.90;;;5.55;100.00;100542.34;4184204;28;20436;-83
2024/03/04 08:03:27;;;;;;;16.25;6.63;;;6.30;99.90;;;5.60;100.00;100541.97;4193118;28;20503;-82
2024/03/04 08:05:27;;;;;;;9.30;4.97;;;6.40;99.90;;;5.70;100.00;100550.72;4189138;28;20025;-89
2024/03/04 08:07:28;;;;;;;10.80;4.28;;;6.40;99.90;;;5.79;100.00;100549.09;4199207;28;20039;-85
2024/03/04 08:09:29;;;;;;;9.05;3.83;;;6.50;99.90;;;5.87;100.00;100544.91;4197344;28;20041;-86
2024/03/04 08:11:30;;;;;;;9.40;4.88;;;6.60;99.90;;;5.95;100.00;100542.44;4185353;28;20074;-79
2024/03/04 08:13:31;;;;;;;9.75;4.30;;;6.70;99.90;;;6.02;100.00;100546.22;4185317;28;20047;-77
2024/03/04 08:15:32;;;;;;;10.25;5.10;;;6.70;99.90;;;6.13;100.00;100543.50;4198267;28;20519;-78
2024/03/04 08:17:33;;;;;;;12.93;4.90;;;6.80;99.90;;;6.21;100.00;100536.78;4196586;28;20021;-76
2024/03/04 08:19:33;;;;;;;11.27;6.30;;;6.90;99.90;;;6.32;100.00;100547.97;4191238;28;20056;-79
2024/03/04 08:21:34;;;;;;;9.43;4.43;;;7.00;99.90;;;6.42;100.00;100542.75;4200031;28;20028;-76
2024/03/04 08:23:35;;;;;;;4.32;3.00;;;7.10;99.90;;;6.45;100.00;100522.34;4186594;28;20035;-76
2024/03/04 08:25:37;;;;;;;8.27;4.13;;;7.20;99.90;;;6.56;100.00;100535.34;4185304;28;20374;-76
2024/03/04 08:27:38;;;;;;;8.75;3.40;;;7.30;99.90;;;6.52;100.00;100515.59;4183996;28;20024;-76
2024/03/04 08:29:39;;;;;;;8.55;2.22;;;7.30;99.90;;;6.65;100.00;100521.44;4191705;28;20025;-76